sensor_id;sensor_type;location;lat;lon;timestamp;P1;durP1;ratioP1;P2;durP2;ratioP2
17496;SDS011;62150;43.582;1.456;2022-09-01T05:47:47;11.23;;;5.05;;
17496;SDS011;62150;43.582;1.456;2022-09-01T05:50:14;13.10;;;6.25;;
17496;SDS011;62150;43.582;1.456;2022-09-01T05:52:43;12.43;;;6.18;;
17496;SDS011;62150;43.582;1.456;2022-09-01T05:55:12;11.25;;;5.93;;
17496;SDS011;62150;43.582;1.456;2022-09-01T05:57:40;12.30;;;6.57;;
17496;SDS011;62150;43.582;1.456;2022-09-01T06:00:12;11.82;;;6.13;;
17496;SDS011;62150;43.582;1.456;2022-09-01T06:02:42;11.77;;;6.00;;
17496;SDS011;62150;43.582;1.456;2022-09-01T06:05:11;11.93;;;6.47;;
17496;SDS011;62150;43.582;1.456;2022-09-01T06:07:39;12.02;;;6.30;;
17496;SDS011;62150;43.582;1.456;2022-09-01T06:10:08;12.80;;;6.20;;
17496;SDS011;62150;43.582;1.456;2022-09-01T06:12:38;12.07;;;6.70;;
17496;SDS011;62150;43.582;1.456;2022-09-01T06:15:07;12.38;;;6.10;;
17496;SDS011;62150;43.582;1.456;2022-09-01T06:17:39;13.73;;;6.18;;
17496;SDS011;62150;43.582;1.456;2022-09-01T06:20:08;12.85;;;6.43;;
17496;SDS011;62150;43.582;1.456;2022-09-01T06:22:37;11.85;;;6.63;;
17496;SDS011;62150;43.582;1.456;2022-09-01T06:25:05;12.60;;;6.45;;
17496;SDS011;62150;43.582;1.456;2022-09-01T06:27:34;12.32;;;6.63;;
17496;SDS011;62150;43.582;1.456;2022-09-01T06:30:05;11.68;;;5.85;;
17496;SDS011;62150;43.582;1.456;2022-09-01T06:32:39;12.00;;;6.30;;
17496;SDS011;62150;43.582;1.456;2022-09-01T06:35:08;13.52;;;6.32;;
17496;SDS011;62150;43.582;1.456;2022-09-01T06:37:37;11.02;;;5.85;;
17496;SDS011;62150;43.582;1.456;2022-09-01T06:40:07;11.90;;;6.22;;
17496;SDS011;62150;43.582;1.456;2022-09-01T06:42:41;12.27;;;6.47;;
17496;SDS011;62150;43.582;1.456;2022-09-01T06:45:11;12.90;;;6.35;;
17496;SDS011;62150;43.582;1.456;2022-09-01T06:47:39;12.00;;;6.38;;
17496;SDS011;62150;43.582;1.456;2022-09-01T06:50:10;13.07;;;5.93;;
17496;SDS011;62150;43.582;1.456;2022-09-01T06:52:40;10.32;;;5.70;;
17496;SDS011;62150;43.582;1.456;2022-09-01T06:55:08;13.35;;;6.72;;
17496;SDS011;62150;43.582;1.456;2022-09-01T06:57:37;12.30;;;6.10;;
17496;SDS011;62150;43.582;1.456;2022-09-01T07:00:07;12.18;;;5.85;;
17496;SDS011;62150;43.582;1.456;2022-09-01T07:02:42;11.40;;;5.95;;
17496;SDS011;62150;43.582;1.456;2022-09-01T07:05:13;12.23;;;5.78;;
17496;SDS011;62150;43.582;1.456;2022-09-01T07:07:45;11.07;;;5.75;;
17496;SDS011;62150;43.582;1.456;2022-09-01T07:10:16;13.32;;;6.07;;
17496;SDS011;62150;43.582;1.456;2022-09-01T07:12:46;11.40;;;5.93;;
17496;SDS011;62150;43.582;1.456;2022-09-01T07:15:14;12.32;;;5.80;;
17496;SDS011;62150;43.582;1.456;2022-09-01T07:17:45;11.43;;;5.50;;
17496;SDS011;62150;43.582;1.456;2022-09-01T07:20:16;10.38;;;5.53;;
17496;SDS011;62150;43.582;1.456;2022-09-01T07:22:46;10.75;;;5.72;;
17496;SDS011;62150;43.582;1.456;2022-09-01T07:25:14;11.38;;;5.15;;
17496;SDS011;62150;43.582;1.456;2022-09-01T07:27:44;10.57;;;5.13;;
17496;SDS011;62150;43.582;1.456;2022-09-01T07:30:14;11.10;;;5.50;;
17496;SDS011;62150;43.582;1.456;2022-09-01T07:32:44;11.35;;;5.07;;
17496;SDS011;62150;43.582;1.456;2022-09-01T07:35:13;10.00;;;5.25;;
17496;SDS011;62150;43.582;1.456;2022-09-01T07:37:44;11.90;;;5.50;;
17496;SDS011;62150;43.582;1.456;2022-09-01T07:40:14;12.15;;;5.47;;
17496;SDS011;62150;43.582;1.456;2022-09-01T07:42:52;12.23;;;5.05;;
17496;SDS011;62150;43.582;1.456;2022-09-01T07:45:21;11.02;;;5.40;;
17496;SDS011;62150;43.582;1.456;2022-09-01T07:47:50;10.35;;;5.43;;
17496;SDS011;62150;43.582;1.456;2022-09-01T07:50:19;11.20;;;5.30;;
17496;SDS011;62150;43.582;1.456;2022-09-01T07:52:48;13.15;;;5.30;;
17496;SDS011;62150;43.582;1.456;2022-09-01T07:55:16;10.80;;;4.80;;
17496;SDS011;62150;43.582;1.456;2022-09-01T07:57:44;11.73;;;5.55;;
17496;SDS011;62150;43.582;1.456;2022-09-01T08:00:12;12.40;;;6.00;;
17496;SDS011;62150;43.582;1.456;2022-09-01T08:02:41;10.65;;;5.70;;
17496;SDS011;62150;43.582;1.456;2022-09-01T08:05:12;12.45;;;5.47;;
17496;SDS011;62150;43.582;1.456;2022-09-01T08:07:43;10.85;;;5.60;;
17496;SDS011;62150;43.582;1.456;2022-09-01T08:10:13;12.23;;;5.35;;
17496;SDS011;62150;43.582;1.456;2022-09-01T08:12:41;12.48;;;5.20;;
17496;SDS011;62150;43.582;1.456;2022-09-01T08:15:09;11.52;;;5.25;;
17496;SDS011;62150;43.582;1.456;2022-09-01T08:17:38;10.23;;;5.47;;
17496;SDS011;62150;43.582;1.456;2022-09-01T08:20:07;11.95;;;5.53;;
17496;SDS011;62150;43.582;1.456;2022-09-01T08:22:37;10.57;;;5.30;;
17496;SDS011;62150;43.582;1.456;2022-09-01T08:25:07;11.50;;;5.40;;
17496;SDS011;62150;43.582;1.456;2022-09-01T08:27:35;11.18;;;5.63;;
17496;SDS011;62150;43.582;1.456;2022-09-01T08:30:04;11.25;;;5.43;;
17496;SDS011;62150;43.582;1.456;2022-09-01T08:32:35;10.88;;;5.50;;
17496;SDS011;62150;43.582;1.456;2022-09-01T08:35:07;12.73;;;6.00;;
17496;SDS011;62150;43.582;1.456;2022-09-01T08:37:40;11.02;;;5.63;;
17496;SDS011;62150;43.582;1.456;2022-09-01T08:40:13;11.55;;;5.88;;
17496;SDS011;62150;43.582;1.456;2022-09-01T08:42:47;12.27;;;5.95;;
17496;SDS011;62150;43.582;1.456;2022-09-01T08:45:24;10.63;;;5.53;;
17496;SDS011;62150;43.582;1.456;2022-09-01T08:47:58;10.80;;;5.40;;
17496;SDS011;62150;43.582;1.456;2022-09-01T08:50:32;10.38;;;5.07;;
17496;SDS011;62150;43.582;1.456;2022-09-01T08:53:02;10.80;;;5.28;;
17496;SDS011;62150;43.582;1.456;2022-09-01T08:55:38;11.13;;;5.50;;
17496;SDS011;62150;43.582;1.456;2022-09-01T08:58:11;10.82;;;5.53;;
17496;SDS011;62150;43.582;1.456;2022-09-01T09:00:43;11.20;;;5.25;;
17496;SDS011;62150;43.582;1.456;2022-09-01T09:03:21;11.18;;;5.47;;
17496;SDS011;62150;43.582;1.456;2022-09-01T09:06:02;11.00;;;5.43;;
17496;SDS011;62150;43.582;1.456;2022-09-01T09:08:52;10.70;;;5.35;;
17496;SDS011;62150;43.582;1.456;2022-09-01T09:14:35;10.35;;;5.20;;
17496;SDS011;62150;43.582;1.456;2022-09-01T09:17:15;11.00;;;5.68;;
17496;SDS011;62150;43.582;1.456;2022-09-01T09:19:46;12.30;;;5.38;;
17496;SDS011;62150;43.582;1.456;2022-09-01T09:22:15;11.50;;;5.57;;
17496;SDS011;62150;43.582;1.456;2022-09-01T09:24:45;10.40;;;5.20;;
17496;SDS011;62150;43.582;1.456;2022-09-01T09:27:18;10.73;;;5.43;;
17496;SDS011;62150;43.582;1.456;2022-09-01T09:29:48;10.27;;;5.22;;
17496;SDS011;62150;43.582;1.456;2022-09-01T09:32:23;12.80;;;5.88;;
17496;SDS011;62150;43.582;1.456;2022-09-01T09:35:16;11.32;;;5.43;;
17496;SDS011;62150;43.582;1.456;2022-09-01T09:37:47;11.18;;;5.65;;
17496;SDS011;62150;43.582;1.456;2022-09-01T09:40:16;11.32;;;5.80;;
17496;SDS011;62150;43.582;1.456;2022-09-01T09:45:34;10.30;;;5.60;;
17496;SDS011;62150;43.582;1.456;2022-09-01T09:48:04;12.00;;;5.95;;
17496;SDS011;62150;43.582;1.456;2022-09-01T09:50:35;12.05;;;5.68;;
17496;SDS011;62150;43.582;1.456;2022-09-01T09:53:15;11.93;;;5.75;;
17496;SDS011;62150;43.582;1.456;2022-09-01T09:55:53;11.40;;;5.85;;
17496;SDS011;62150;43.582;1.456;2022-09-01T09:58:28;12.27;;;6.05;;
17496;SDS011;62150;43.582;1.456;2022-09-01T10:01:04;11.85;;;5.55;;
17496;SDS011;62150;43.582;1.456;2022-09-01T10:03:39;11.02;;;5.40;;
17496;SDS011;62150;43.582;1.456;2022-09-01T10:06:13;10.25;;;5.43;;
17496;SDS011;62150;43.582;1.456;2022-09-01T10:08:55;10.55;;;5.32;;
17496;SDS011;62150;43.582;1.456;2022-09-01T10:11:25;11.98;;;5.18;;
17496;SDS011;62150;43.582;1.456;2022-09-01T10:13:57;11.02;;;5.55;;
17496;SDS011;62150;43.582;1.456;2022-09-01T10:16:26;10.50;;;5.18;;
17496;SDS011;62150;43.582;1.456;2022-09-01T10:18:57;10.48;;;5.22;;
17496;SDS011;62150;43.582;1.456;2022-09-01T10:21:27;10.90;;;5.50;;
17496;SDS011;62150;43.582;1.456;2022-09-01T10:23:59;10.98;;;5.50;;
17496;SDS011;62150;43.582;1.456;2022-09-01T10:26:31;10.23;;;5.32;;
17496;SDS011;62150;43.582;1.456;2022-09-01T10:29:06;11.68;;;6.18;;
17496;SDS011;62150;43.582;1.456;2022-09-01T10:31:38;11.90;;;6.20;;
17496;SDS011;62150;43.582;1.456;2022-09-01T10:34:08;12.88;;;6.18;;
17496;SDS011;62150;43.582;1.456;2022-09-01T10:36:40;10.68;;;5.57;;
17496;SDS011;62150;43.582;1.456;2022-09-01T10:39:09;10.73;;;5.82;;
17496;SDS011;62150;43.582;1.456;2022-09-01T10:41:49;11.80;;;5.85;;
17496;SDS011;62150;43.582;1.456;2022-09-01T10:44:23;11.98;;;6.05;;
17496;SDS011;62150;43.582;1.456;2022-09-01T10:46:56;11.60;;;5.95;;
17496;SDS011;62150;43.582;1.456;2022-09-01T10:55:21;12.20;;;5.72;;
17496;SDS011;62150;43.582;1.456;2022-09-01T10:57:53;10.77;;;5.97;;
17496;SDS011;62150;43.582;1.456;2022-09-01T11:00:53;10.75;;;5.72;;
17496;SDS011;62150;43.582;1.456;2022-09-01T11:09:30;10.38;;;5.85;;
17496;SDS011;62150;43.582;1.456;2022-09-01T11:14:52;11.48;;;6.32;;
17496;SDS011;62150;43.582;1.456;2022-09-01T11:17:24;12.15;;;6.05;;
17496;SDS011;62150;43.582;1.456;2022-09-01T11:19:56;12.85;;;5.85;;
17496;SDS011;62150;43.582;1.456;2022-09-01T11:22:33;9.95;;;5.80;;
17496;SDS011;62150;43.582;1.456;2022-09-01T11:25:11;11.50;;;5.85;;
17496;SDS011;62150;43.582;1.456;2022-09-01T11:28:01;11.57;;;5.95;;
17496;SDS011;62150;43.582;1.456;2022-09-01T11:30:48;10.93;;;5.72;;
17496;SDS011;62150;43.582;1.456;2022-09-01T11:36:20;10.07;;;5.35;;
17496;SDS011;62150;43.582;1.456;2022-09-01T11:38:55;10.70;;;5.75;;
17496;SDS011;62150;43.582;1.456;2022-09-01T11:41:31;11.05;;;5.88;;
17496;SDS011;62150;43.582;1.456;2022-09-01T11:44:10;10.48;;;5.57;;
17496;SDS011;62150;43.582;1.456;2022-09-01T11:46:40;12.45;;;6.05;;
17496;SDS011;62150;43.582;1.456;2022-09-01T11:49:16;10.55;;;5.93;;
17496;SDS011;62150;43.582;1.456;2022-09-01T11:51:52;11.73;;;5.80;;
17496;SDS011;62150;43.582;1.456;2022-09-01T11:54:21;10.80;;;5.68;;
17496;SDS011;62150;43.582;1.456;2022-09-01T11:56:49;11.68;;;6.10;;
17496;SDS011;62150;43.582;1.456;2022-09-01T11:59:29;11.38;;;5.95;;
17496;SDS011;62150;43.582;1.456;2022-09-01T12:02:01;11.55;;;5.72;;
17496;SDS011;62150;43.582;1.456;2022-09-01T12:04:31;12.48;;;6.05;;
17496;SDS011;62150;43.582;1.456;2022-09-01T12:07:03;10.02;;;5.70;;
17496;SDS011;62150;43.582;1.456;2022-09-01T12:09:33;12.00;;;5.68;;
17496;SDS011;62150;43.582;1.456;2022-09-01T12:12:03;10.70;;;5.45;;
17496;SDS011;62150;43.582;1.456;2022-09-01T12:14:32;11.43;;;5.55;;
17496;SDS011;62150;43.582;1.456;2022-09-01T12:17:01;11.65;;;5.72;;
17496;SDS011;62150;43.582;1.456;2022-09-01T12:19:33;12.25;;;5.68;;
17496;SDS011;62150;43.582;1.456;2022-09-01T12:22:03;11.05;;;5.95;;
17496;SDS011;62150;43.582;1.456;2022-09-01T12:24:42;12.05;;;6.00;;
17496;SDS011;62150;43.582;1.456;2022-09-01T12:27:11;10.70;;;5.88;;
17496;SDS011;62150;43.582;1.456;2022-09-01T12:29:40;10.07;;;5.43;;
17496;SDS011;62150;43.582;1.456;2022-09-01T12:32:08;12.05;;;5.65;;
17496;SDS011;62150;43.582;1.456;2022-09-01T12:34:39;11.02;;;5.43;;
17496;SDS011;62150;43.582;1.456;2022-09-01T12:37:09;10.32;;;5.22;;
17496;SDS011;62150;43.582;1.456;2022-09-01T12:39:46;11.73;;;5.85;;
17496;SDS011;62150;43.582;1.456;2022-09-01T12:42:22;11.70;;;5.78;;
17496;SDS011;62150;43.582;1.456;2022-09-01T12:44:54;9.90;;;5.70;;
17496;SDS011;62150;43.582;1.456;2022-09-01T12:47:44;10.27;;;5.78;;
17496;SDS011;62150;43.582;1.456;2022-09-01T12:50:35;10.90;;;5.43;;
17496;SDS011;62150;43.582;1.456;2022-09-01T12:53:17;11.10;;;5.78;;
17496;SDS011;62150;43.582;1.456;2022-09-01T12:56:04;10.57;;;5.80;;
17496;SDS011;62150;43.582;1.456;2022-09-01T12:58:43;9.52;;;5.03;;
17496;SDS011;62150;43.582;1.456;2022-09-01T13:01:26;9.60;;;5.18;;
17496;SDS011;62150;43.582;1.456;2022-09-01T13:04:22;9.85;;;5.50;;
17496;SDS011;62150;43.582;1.456;2022-09-01T13:06:54;9.85;;;5.22;;
17496;SDS011;62150;43.582;1.456;2022-09-01T13:09:25;9.25;;;5.10;;
17496;SDS011;62150;43.582;1.456;2022-09-01T13:12:00;10.88;;;5.13;;
17496;SDS011;62150;43.582;1.456;2022-09-01T13:14:42;10.38;;;5.40;;
17496;SDS011;62150;43.582;1.456;2022-09-01T13:17:09;10.50;;;5.75;;
17496;SDS011;62150;43.582;1.456;2022-09-01T13:19:37;10.43;;;5.50;;
17496;SDS011;62150;43.582;1.456;2022-09-01T13:22:06;9.07;;;4.90;;
17496;SDS011;62150;43.582;1.456;2022-09-01T13:24:34;10.73;;;5.20;;
17496;SDS011;62150;43.582;1.456;2022-09-01T13:27:03;10.70;;;5.00;;
17496;SDS011;62150;43.582;1.456;2022-09-01T13:29:31;11.40;;;5.30;;
17496;SDS011;62150;43.582;1.456;2022-09-01T13:31:58;11.00;;;5.18;;
17496;SDS011;62150;43.582;1.456;2022-09-01T13:34:27;10.38;;;5.30;;
17496;SDS011;62150;43.582;1.456;2022-09-01T13:36:55;9.98;;;5.13;;
17496;SDS011;62150;43.582;1.456;2022-09-01T13:39:25;9.48;;;5.30;;
17496;SDS011;62150;43.582;1.456;2022-09-01T13:41:54;10.10;;;5.20;;
17496;SDS011;62150;43.582;1.456;2022-09-01T13:44:21;10.15;;;5.50;;
17496;SDS011;62150;43.582;1.456;2022-09-01T13:46:49;10.15;;;5.40;;
17496;SDS011;62150;43.582;1.456;2022-09-01T13:49:16;10.52;;;5.50;;
17496;SDS011;62150;43.582;1.456;2022-09-01T13:51:49;10.25;;;5.15;;
17496;SDS011;62150;43.582;1.456;2022-09-01T13:54:17;9.50;;;5.03;;
17496;SDS011;62150;43.582;1.456;2022-09-01T13:56:46;10.15;;;5.13;;
17496;SDS011;62150;43.582;1.456;2022-09-01T13:59:14;9.30;;;5.03;;
17496;SDS011;62150;43.582;1.456;2022-09-01T14:01:41;11.48;;;5.70;;
17496;SDS011;62150;43.582;1.456;2022-09-01T14:04:10;10.07;;;5.53;;
17496;SDS011;62150;43.582;1.456;2022-09-01T14:06:38;8.77;;;5.07;;
17496;SDS011;62150;43.582;1.456;2022-09-01T14:09:08;8.85;;;5.18;;
17496;SDS011;62150;43.582;1.456;2022-09-01T14:11:36;9.50;;;5.25;;
17496;SDS011;62150;43.582;1.456;2022-09-01T14:14:06;9.32;;;5.05;;
17496;SDS011;62150;43.582;1.456;2022-09-01T14:16:35;10.18;;;4.97;;
17496;SDS011;62150;43.582;1.456;2022-09-01T14:19:03;9.27;;;5.15;;
17496;SDS011;62150;43.582;1.456;2022-09-01T14:21:31;9.15;;;4.90;;
17496;SDS011;62150;43.582;1.456;2022-09-01T14:23:58;10.55;;;5.10;;
17496;SDS011;62150;43.582;1.456;2022-09-01T14:26:26;10.38;;;5.43;;
17496;SDS011;62150;43.582;1.456;2022-09-01T14:28:53;10.25;;;5.57;;
17496;SDS011;62150;43.582;1.456;2022-09-01T14:31:23;11.55;;;5.55;;
17496;SDS011;62150;43.582;1.456;2022-09-01T14:33:50;10.18;;;5.60;;
17496;SDS011;62150;43.582;1.456;2022-09-01T14:36:19;10.82;;;5.50;;
17496;SDS011;62150;43.582;1.456;2022-09-01T14:38:50;10.70;;;5.28;;
17496;SDS011;62150;43.582;1.456;2022-09-01T14:41:19;11.50;;;5.40;;
17496;SDS011;62150;43.582;1.456;2022-09-01T14:43:49;11.02;;;5.30;;
17496;SDS011;62150;43.582;1.456;2022-09-01T14:46:17;9.98;;;4.82;;
17496;SDS011;62150;43.582;1.456;2022-09-01T14:48:47;10.90;;;5.35;;
17496;SDS011;62150;43.582;1.456;2022-09-01T14:51:19;9.75;;;5.00;;
17496;SDS011;62150;43.582;1.456;2022-09-01T14:53:48;10.07;;;4.90;;
17496;SDS011;62150;43.582;1.456;2022-09-01T14:56:16;8.75;;;5.10;;
17496;SDS011;62150;43.582;1.456;2022-09-01T14:58:44;10.20;;;4.68;;
17496;SDS011;62150;43.582;1.456;2022-09-01T15:01:13;9.40;;;4.53;;
17496;SDS011;62150;43.582;1.456;2022-09-01T15:03:42;8.52;;;4.60;;
17496;SDS011;62150;43.582;1.456;2022-09-01T15:06:12;9.30;;;4.75;;
17496;SDS011;62150;43.582;1.456;2022-09-01T15:08:40;10.68;;;4.90;;
17496;SDS011;62150;43.582;1.456;2022-09-01T15:11:08;9.07;;;4.65;;
17496;SDS011;62150;43.582;1.456;2022-09-01T15:13:37;8.68;;;4.55;;
17496;SDS011;62150;43.582;1.456;2022-09-01T15:16:11;9.88;;;4.60;;
17496;SDS011;62150;43.582;1.456;2022-09-01T15:18:39;9.10;;;5.00;;
17496;SDS011;62150;43.582;1.456;2022-09-01T15:21:07;10.88;;;5.00;;
17496;SDS011;62150;43.582;1.456;2022-09-01T15:23:45;8.95;;;4.60;;
17496;SDS011;62150;43.582;1.456;2022-09-01T15:26:13;10.05;;;5.10;;
17496;SDS011;62150;43.582;1.456;2022-09-01T15:28:42;9.45;;;4.88;;
17496;SDS011;62150;43.582;1.456;2022-09-01T15:31:09;9.93;;;4.90;;
17496;SDS011;62150;43.582;1.456;2022-09-01T15:33:38;9.38;;;4.50;;
17496;SDS011;62150;43.582;1.456;2022-09-01T15:36:06;9.55;;;4.90;;
17496;SDS011;62150;43.582;1.456;2022-09-01T15:38:41;9.68;;;4.57;;
17496;SDS011;62150;43.582;1.456;2022-09-01T15:41:13;9.07;;;4.75;;
17496;SDS011;62150;43.582;1.456;2022-09-01T15:43:41;9.88;;;4.38;;
17496;SDS011;62150;43.582;1.456;2022-09-01T15:46:09;8.88;;;4.72;;
17496;SDS011;62150;43.582;1.456;2022-09-01T15:48:38;9.75;;;4.93;;
17496;SDS011;62150;43.582;1.456;2022-09-01T15:51:26;10.20;;;4.50;;
17496;SDS011;62150;43.582;1.456;2022-09-01T15:53:59;8.40;;;4.50;;
17496;SDS011;62150;43.582;1.456;2022-09-01T15:56:28;9.13;;;4.75;;
17496;SDS011;62150;43.582;1.456;2022-09-01T15:58:56;8.13;;;4.60;;
17496;SDS011;62150;43.582;1.456;2022-09-01T16:01:25;8.55;;;4.80;;
17496;SDS011;62150;43.582;1.456;2022-09-01T16:03:54;8.82;;;4.45;;
17496;SDS011;62150;43.582;1.456;2022-09-01T16:06:22;9.27;;;4.35;;
17496;SDS011;62150;43.582;1.456;2022-09-01T16:08:50;8.73;;;4.68;;
17496;SDS011;62150;43.582;1.456;2022-09-01T16:11:19;8.75;;;4.65;;
17496;SDS011;62150;43.582;1.456;2022-09-01T16:13:49;9.63;;;4.70;;
17496;SDS011;62150;43.582;1.456;2022-09-01T16:16:24;10.93;;;5.03;;
17496;SDS011;62150;43.582;1.456;2022-09-01T16:19:00;10.32;;;4.93;;
17496;SDS011;62150;43.582;1.456;2022-09-01T16:21:33;8.05;;;4.47;;
17496;SDS011;62150;43.582;1.456;2022-09-01T16:24:12;8.68;;;4.65;;
17496;SDS011;62150;43.582;1.456;2022-09-01T16:26:42;8.85;;;4.32;;
17496;SDS011;62150;43.582;1.456;2022-09-01T16:29:14;8.63;;;4.22;;
17496;SDS011;62150;43.582;1.456;2022-09-01T16:31:47;7.93;;;4.40;;
17496;SDS011;62150;43.582;1.456;2022-09-01T16:34:19;8.75;;;4.55;;
17496;SDS011;62150;43.582;1.456;2022-09-01T16:36:50;8.73;;;4.82;;
17496;SDS011;62150;43.582;1.456;2022-09-01T16:39:27;8.27;;;4.28;;
17496;SDS011;62150;43.582;1.456;2022-09-01T16:42:16;8.23;;;4.30;;
17496;SDS011;62150;43.582;1.456;2022-09-01T16:44:56;9.68;;;4.53;;
17496;SDS011;62150;43.582;1.456;2022-09-01T16:47:32;8.20;;;4.00;;
17496;SDS011;62150;43.582;1.456;2022-09-01T16:50:21;7.22;;;3.92;;
17496;SDS011;62150;43.582;1.456;2022-09-01T16:53:07;7.53;;;3.90;;
17496;SDS011;62150;43.582;1.456;2022-09-01T16:55:56;9.23;;;4.30;;
17496;SDS011;62150;43.582;1.456;2022-09-01T16:58:35;9.13;;;3.90;;
17496;SDS011;62150;43.582;1.456;2022-09-01T17:01:12;7.72;;;4.20;;
17496;SDS011;62150;43.582;1.456;2022-09-01T17:03:57;9.30;;;4.00;;
17496;SDS011;62150;43.582;1.456;2022-09-01T17:06:41;7.53;;;3.72;;
17496;SDS011;62150;43.582;1.456;2022-09-01T17:09:19;7.28;;;3.90;;
17496;SDS011;62150;43.582;1.456;2022-09-01T17:11:52;7.90;;;3.90;;
17496;SDS011;62150;43.582;1.456;2022-09-01T17:14:41;7.75;;;3.90;;
17496;SDS011;62150;43.582;1.456;2022-09-01T17:17:17;6.95;;;3.75;;
17496;SDS011;62150;43.582;1.456;2022-09-01T17:19:50;7.22;;;3.80;;
17496;SDS011;62150;43.582;1.456;2022-09-01T17:22:18;7.30;;;4.05;;
17496;SDS011;62150;43.582;1.456;2022-09-01T17:24:47;7.93;;;4.07;;
17496;SDS011;62150;43.582;1.456;2022-09-01T17:27:20;6.75;;;3.80;;
17496;SDS011;62150;43.582;1.456;2022-09-01T17:29:53;7.63;;;3.70;;
17496;SDS011;62150;43.582;1.456;2022-09-01T17:32:31;8.30;;;4.15;;
17496;SDS011;62150;43.582;1.456;2022-09-01T17:35:21;9.60;;;4.10;;
17496;SDS011;62150;43.582;1.456;2022-09-01T17:37:59;9.07;;;3.90;;
17496;SDS011;62150;43.582;1.456;2022-09-01T17:40:39;7.75;;;3.65;;
17496;SDS011;62150;43.582;1.456;2022-09-01T17:43:24;7.00;;;3.70;;
17496;SDS011;62150;43.582;1.456;2022-09-01T17:46:04;7.22;;;3.80;;
17496;SDS011;62150;43.582;1.456;2022-09-01T17:48:42;8.05;;;3.95;;
17496;SDS011;62150;43.582;1.456;2022-09-01T17:51:18;8.02;;;4.00;;
17496;SDS011;62150;43.582;1.456;2022-09-01T17:53:52;7.70;;;4.00;;
17496;SDS011;62150;43.582;1.456;2022-09-01T17:56:32;8.63;;;3.92;;
17496;SDS011;62150;43.582;1.456;2022-09-01T17:59:09;8.40;;;4.20;;
17496;SDS011;62150;43.582;1.456;2022-09-01T18:01:46;9.80;;;4.20;;
17496;SDS011;62150;43.582;1.456;2022-09-01T18:04:34;10.27;;;4.53;;
17496;SDS011;62150;43.582;1.456;2022-09-01T18:10:22;7.95;;;4.00;;
17496;SDS011;62150;43.582;1.456;2022-09-01T18:12:57;8.60;;;4.20;;
17496;SDS011;62150;43.582;1.456;2022-09-01T18:15:30;8.05;;;4.32;;
17496;SDS011;62150;43.582;1.456;2022-09-01T18:18:09;9.35;;;4.03;;
17496;SDS011;62150;43.582;1.456;2022-09-01T18:20:53;7.72;;;4.32;;
17496;SDS011;62150;43.582;1.456;2022-09-01T18:23:29;8.57;;;4.40;;
17496;SDS011;62150;43.582;1.456;2022-09-01T18:26:02;8.68;;;4.47;;
17496;SDS011;62150;43.582;1.456;2022-09-01T18:28:38;9.13;;;4.20;;
17496;SDS011;62150;43.582;1.456;2022-09-01T18:31:09;11.07;;;4.30;;
17496;SDS011;62150;43.582;1.456;2022-09-01T18:33:50;8.45;;;4.20;;
17496;SDS011;62150;43.582;1.456;2022-09-01T18:36:31;8.43;;;4.10;;
17496;SDS011;62150;43.582;1.456;2022-09-01T18:39:04;7.20;;;4.15;;
17496;SDS011;62150;43.582;1.456;2022-09-01T18:41:40;8.90;;;4.68;;
17496;SDS011;62150;43.582;1.456;2022-09-01T18:44:39;9.02;;;4.85;;
17496;SDS011;62150;43.582;1.456;2022-09-01T18:47:12;9.65;;;4.70;;
17496;SDS011;62150;43.582;1.456;2022-09-01T18:49:48;9.35;;;4.70;;
17496;SDS011;62150;43.582;1.456;2022-09-01T18:52:25;9.57;;;4.80;;
17496;SDS011;62150;43.582;1.456;2022-09-01T18:55:07;11.00;;;5.22;;
17496;SDS011;62150;43.582;1.456;2022-09-01T18:57:46;11.23;;;4.70;;
17496;SDS011;62150;43.582;1.456;2022-09-01T19:00:20;8.52;;;4.68;;
17496;SDS011;62150;43.582;1.456;2022-09-01T19:02:55;9.77;;;4.63;;
17496;SDS011;62150;43.582;1.456;2022-09-01T19:05:44;10.30;;;5.05;;
17496;SDS011;62150;43.582;1.456;2022-09-01T19:08:37;9.43;;;4.78;;
17496;SDS011;62150;43.582;1.456;2022-09-01T19:11:21;8.38;;;4.55;;
17496;SDS011;62150;43.582;1.456;2022-09-01T19:14:03;9.95;;;4.85;;
17496;SDS011;62150;43.582;1.456;2022-09-01T19:16:42;10.15;;;4.88;;
17496;SDS011;62150;43.582;1.456;2022-09-01T19:19:23;10.30;;;4.93;;
17496;SDS011;62150;43.582;1.456;2022-09-01T19:22:03;8.98;;;4.40;;
17496;SDS011;62150;43.582;1.456;2022-09-01T19:24:32;8.77;;;4.90;;
17496;SDS011;62150;43.582;1.456;2022-09-01T19:27:06;9.80;;;5.07;;
17496;SDS011;62150;43.582;1.456;2022-09-01T19:29:40;9.13;;;4.88;;
17496;SDS011;62150;43.582;1.456;2022-09-01T19:32:10;10.20;;;4.95;;
17496;SDS011;62150;43.582;1.456;2022-09-01T19:34:44;9.52;;;4.90;;
17496;SDS011;62150;43.582;1.456;2022-09-01T19:37:19;9.90;;;4.90;;
17496;SDS011;62150;43.582;1.456;2022-09-01T19:39:48;10.70;;;4.93;;
17496;SDS011;62150;43.582;1.456;2022-09-01T19:42:20;11.18;;;5.03;;
17496;SDS011;62150;43.582;1.456;2022-09-01T19:44:56;9.70;;;4.80;;
17496;SDS011;62150;43.582;1.456;2022-09-01T19:47:32;10.02;;;4.95;;
17496;SDS011;62150;43.582;1.456;2022-09-01T19:50:06;10.32;;;4.97;;
17496;SDS011;62150;43.582;1.456;2022-09-01T19:52:41;10.20;;;5.05;;
17496;SDS011;62150;43.582;1.456;2022-09-01T19:55:16;10.07;;;5.30;;
17496;SDS011;62150;43.582;1.456;2022-09-01T19:57:50;10.05;;;5.40;;
17496;SDS011;62150;43.582;1.456;2022-09-01T20:00:21;11.90;;;5.15;;
17496;SDS011;62150;43.582;1.456;2022-09-01T20:02:53;9.30;;;4.72;;
17496;SDS011;62150;43.582;1.456;2022-09-01T20:05:29;10.63;;;5.30;;
17496;SDS011;62150;43.582;1.456;2022-09-01T20:08:05;10.68;;;5.57;;
17496;SDS011;62150;43.582;1.456;2022-09-01T20:10:48;11.13;;;5.30;;
17496;SDS011;62150;43.582;1.456;2022-09-01T20:13:34;10.50;;;5.32;;
17496;SDS011;62150;43.582;1.456;2022-09-01T20:16:14;9.80;;;5.45;;
17496;SDS011;62150;43.582;1.456;2022-09-01T20:18:57;11.38;;;5.55;;
17496;SDS011;62150;43.582;1.456;2022-09-01T20:21:28;11.60;;;5.40;;
17496;SDS011;62150;43.582;1.456;2022-09-01T20:23:58;10.85;;;5.20;;
17496;SDS011;62150;43.582;1.456;2022-09-01T20:26:34;11.52;;;5.50;;
17496;SDS011;62150;43.582;1.456;2022-09-01T20:29:08;12.00;;;5.63;;
17496;SDS011;62150;43.582;1.456;2022-09-01T20:31:41;10.48;;;5.47;;
17496;SDS011;62150;43.582;1.456;2022-09-01T20:34:14;12.10;;;6.43;;
17496;SDS011;62150;43.582;1.456;2022-09-01T20:36:51;11.57;;;6.07;;
17496;SDS011;62150;43.582;1.456;2022-09-01T20:39:28;11.10;;;5.75;;
17496;SDS011;62150;43.582;1.456;2022-09-01T20:42:19;11.98;;;5.80;;
17496;SDS011;62150;43.582;1.456;2022-09-01T20:44:56;13.18;;;5.93;;
17496;SDS011;62150;43.582;1.456;2022-09-01T20:47:25;10.93;;;5.75;;
17496;SDS011;62150;43.582;1.456;2022-09-01T20:49:56;10.48;;;6.00;;
17496;SDS011;62150;43.582;1.456;2022-09-01T20:52:26;12.43;;;5.90;;
17496;SDS011;62150;43.582;1.456;2022-09-01T20:55:10;10.75;;;6.03;;
17496;SDS011;62150;43.582;1.456;2022-09-01T20:57:43;11.15;;;5.78;;
17496;SDS011;62150;43.582;1.456;2022-09-01T21:00:26;11.38;;;6.05;;
17496;SDS011;62150;43.582;1.456;2022-09-01T21:02:58;12.02;;;6.00;;
17496;SDS011;62150;43.582;1.456;2022-09-01T21:05:35;12.45;;;5.97;;
17496;SDS011;62150;43.582;1.456;2022-09-01T21:08:18;11.13;;;6.25;;
17496;SDS011;62150;43.582;1.456;2022-09-01T21:10:58;12.57;;;6.07;;
17496;SDS011;62150;43.582;1.456;2022-09-01T21:13:36;11.15;;;6.55;;
17496;SDS011;62150;43.582;1.456;2022-09-01T21:16:18;13.15;;;6.10;;
17496;SDS011;62150;43.582;1.456;2022-09-01T21:18:56;11.40;;;6.22;;
17496;SDS011;62150;43.582;1.456;2022-09-01T21:21:31;12.43;;;6.53;;
17496;SDS011;62150;43.582;1.456;2022-09-01T21:24:05;11.80;;;5.97;;
17496;SDS011;62150;43.582;1.456;2022-09-01T21:26:34;12.13;;;6.45;;
17496;SDS011;62150;43.582;1.456;2022-09-01T21:29:08;10.82;;;6.30;;